sensor_id;sensor_type;location;lat;lon;timestamp;temperature;humidity
18717;DHT22;9487;50.892;6.906;2024-01-10T00:00:59;-3.90;99.90
18717;DHT22;9487;50.892;6.906;2024-01-10T00:03:27;-4.00;99.90
18717;DHT22;9487;50.892;6.906;2024-01-10T00:05:54;-4.00;99.90
18717;DHT22;9487;50.892;6.906;2024-01-10T00:08:21;-4.10;99.90
18717;DHT22;9487;50.892;6.906;2024-01-10T00:10:48;-4.00;99.90
18717;DHT22;9487;50.892;6.906;2024-01-10T00:13:15;-4.00;99.90
18717;DHT22;9487;50.892;6.906;2024-01-10T00:15:43;-4.00;99.90
18717;DHT22;9487;50.892;6.906;2024-01-10T00:18:11;-4.00;99.90
18717;DHT22;9487;50.892;6.906;2024-01-10T00:20:40;-4.10;99.90
18717;DHT22;9487;50.892;6.906;2024-01-10T00:23:06;-4.20;99.90
18717;DHT22;9487;50.892;6.906;2024-01-10T00:25:33;-4.50;99.90
18717;DHT22;9487;50.892;6.906;2024-01-10T00:28:00;-4.30;99.90
18717;DHT22;9487;50.892;6.906;2024-01-10T00:30:28;-4.20;99.90
18717;DHT22;9487;50.892;6.906;2024-01-10T00:32:55;-4.20;99.90
18717;DHT22;9487;50.892;6.906;2024-01-10T00:35:21;-4.30;99.90
18717;DHT22;9487;50.892;6.906;2024-01-10T00:37:50;-4.30;99.90
18717;DHT22;9487;50.892;6.906;2024-01-10T00:40:17;-4.60;99.90
18717;DHT22;9487;50.892;6.906;2024-01-10T00:42:43;-4.70;99.90
18717;DHT22;9487;50.892;6.906;2024-01-10T00:45:10;-4.80;99.90
18717;DHT22;9487;50.892;6.906;2024-01-10T00:47:38;-4.80;99.90
18717;DHT22;9487;50.892;6.906;2024-01-10T00:50:06;-4.60;99.90
18717;DHT22;9487;50.892;6.906;2024-01-10T00:52:33;-4.50;99.90
18717;DHT22;9487;50.892;6.906;2024-01-10T00:55:01;-4.70;99.90
18717;DHT22;9487;50.892;6.906;2024-01-10T00:57:29;-4.90;99.90
18717;DHT22;9487;50.892;6.906;2024-01-10T00:59:56;-4.90;1.00
18717;DHT22;9487;50.892;6.906;2024-01-10T01:02:23;-4.80;1.00
18717;DHT22;9487;50.892;6.906;2024-01-10T01:04:50;-4.50;1.00
18717;DHT22;9487;50.892;6.906;2024-01-10T01:07:18;-4.40;99.90
18717;DHT22;9487;50.892;6.906;2024-01-10T01:09:45;-4.30;99.90
18717;DHT22;9487;50.892;6.906;2024-01-10T01:12:13;-4.60;99.90
18717;DHT22;9487;50.892;6.906;2024-01-10T01:14:40;-4.70;99.90
18717;DHT22;9487;50.892;6.906;2024-01-10T01:17:07;-4.80;1.00
18717;DHT22;9487;50.892;6.906;2024-01-10T01:19:33;-4.80;1.00
18717;DHT22;9487;50.892;6.906;2024-01-10T01:22:00;-4.50;1.00
18717;DHT22;9487;50.892;6.906;2024-01-10T01:24:27;-4.40;99.90
18717;DHT22;9487;50.892;6.906;2024-01-10T01:26:54;-4.40;99.90
18717;DHT22;9487;50.892;6.906;2024-01-10T01:29:24;-4.60;99.90
18717;DHT22;9487;50.892;6.906;2024-01-10T01:31:51;-4.80;1.00
18717;DHT22;9487;50.892;6.906;2024-01-10T01:34:21;-4.70;1.00
18717;DHT22;9487;50.892;6.906;2024-01-10T01:36:48;-4.50;1.00
18717;DHT22;9487;50.892;6.906;2024-01-10T01:39:18;-4.50;1.00
18717;DHT22;9487;50.892;6.906;2024-01-10T01:41:45;-4.50;1.00
18717;DHT22;9487;50.892;6.906;2024-01-10T01:44:13;-4.50;1.00
18717;DHT22;9487;50.892;6.906;2024-01-10T01:46:46;-4.50;1.00
18717;DHT22;9487;50.892;6.906;2024-01-10T01:49:14;-4.60;1.00
18717;DHT22;9487;50.892;6.906;2024-01-10T01:51:42;-4.50;1.00
18717;DHT22;9487;50.892;6.906;2024-01-10T01:54:09;-4.50;1.00
18717;DHT22;9487;50.892;6.906;2024-01-10T01:56:39;-4.50;1.00
18717;DHT22;9487;50.892;6.906;2024-01-10T01:59:08;-4.50;1.00
18717;DHT22;9487;50.892;6.906;2024-01-10T02:01:35;-4.50;1.00
18717;DHT22;9487;50.892;6.906;2024-01-10T02:04:04;-4.50;1.00
18717;DHT22;9487;50.892;6.906;2024-01-10T02:06:31;-4.50;1.00
18717;DHT22;9487;50.892;6.906;2024-01-10T02:08:58;-4.50;1.00
18717;DHT22;9487;50.892;6.906;2024-01-10T02:11:26;-4.60;1.00
18717;DHT22;9487;50.892;6.906;2024-01-10T02:13:54;-4.60;1.00
18717;DHT22;9487;50.892;6.906;2024-01-10T02:16:22;-4.80;1.00
18717;DHT22;9487;50.892;6.906;2024-01-10T02:18:50;-4.70;1.00
18717;DHT22;9487;50.892;6.906;2024-01-10T02:21:22;-4.60;1.00
18717;DHT22;9487;50.892;6.906;2024-01-10T02:23:48;-4.70;1.00
18717;DHT22;9487;50.892;6.906;2024-01-10T02:26:17;-4.60;1.00
18717;DHT22;9487;50.892;6.906;2024-01-10T02:28:44;-4.70;1.00
18717;DHT22;9487;50.892;6.906;2024-01-10T02:31:11;-4.80;1.00
18717;DHT22;9487;50.892;6.906;2024-01-10T02:33:38;-4.70;1.00
18717;DHT22;9487;50.892;6.906;2024-01-10T02:36:08;-4.70;1.00
18717;DHT22;9487;50.892;6.906;2024-01-10T02:38:35;-5.00;1.00
18717;DHT22;9487;50.892;6.906;2024-01-10T02:41:02;-5.30;1.00
18717;DHT22;9487;50.892;6.906;2024-01-10T02:43:30;-5.30;1.00
18717;DHT22;9487;50.892;6.906;2024-01-10T02:45:57;-5.10;99.70
18717;DHT22;9487;50.892;6.906;2024-01-10T02:48:26;-4.90;1.00
18717;DHT22;9487;50.892;6.906;2024-01-10T02:50:53;-5.00;1.00
18717;DHT22;9487;50.892;6.906;2024-01-10T02:53:22;-5.20;1.00
18717;DHT22;9487;50.892;6.906;2024-01-10T02:55:49;-5.00;1.00
18717;DHT22;9487;50.892;6.906;2024-01-10T02:58:16;-4.80;1.00
18717;DHT22;9487;50.892;6.906;2024-01-10T03:00:45;-5.00;99.90
18717;DHT22;9487;50.892;6.906;2024-01-10T03:03:12;-4.90;1.00
18717;DHT22;9487;50.892;6.906;2024-01-10T03:05:40;-4.70;99.90
18717;DHT22;9487;50.892;6.906;2024-01-10T03:08:06;-4.60;99.90
18717;DHT22;9487;50.892;6.906;2024-01-10T03:10:34;-4.60;99.90
18717;DHT22;9487;50.892;6.906;2024-01-10T03:13:01;-4.60;99.90
18717;DHT22;9487;50.892;6.906;2024-01-10T03:15:28;-4.70;99.90
18717;DHT22;9487;50.892;6.906;2024-01-10T03:17:57;-4.90;99.90
18717;DHT22;9487;50.892;6.906;2024-01-10T03:20:24;-5.00;99.90
18717;DHT22;9487;50.892;6.906;2024-01-10T03:22:51;-5.00;1.00
18717;DHT22;9487;50.892;6.906;2024-01-10T03:25:19;-5.00;1.00
18717;DHT22;9487;50.892;6.906;2024-01-10T03:27:48;-5.10;1.00
18717;DHT22;9487;50.892;6.906;2024-01-10T03:30:15;-4.90;1.00
18717;DHT22;9487;50.892;6.906;2024-01-10T03:32:45;-4.80;1.00
18717;DHT22;9487;50.892;6.906;2024-01-10T03:35:14;-4.70;1.00
18717;DHT22;9487;50.892;6.906;2024-01-10T03:37:40;-4.70;99.90
18717;DHT22;9487;50.892;6.906;2024-01-10T03:40:08;-4.70;99.90
18717;DHT22;9487;50.892;6.906;2024-01-10T03:42:35;-4.70;99.90
18717;DHT22;9487;50.892;6.906;2024-01-10T03:45:03;-4.70;99.90
18717;DHT22;9487;50.892;6.906;2024-01-10T03:47:32;-4.70;99.90
18717;DHT22;9487;50.892;6.906;2024-01-10T03:49:59;-4.80;99.90
18717;DHT22;9487;50.892;6.906;2024-01-10T03:52:27;-4.90;99.90
18717;DHT22;9487;50.892;6.906;2024-01-10T03:54:55;-5.10;99.90
18717;DHT22;9487;50.892;6.906;2024-01-10T03:57:23;-5.20;1.00
18717;DHT22;9487;50.892;6.906;2024-01-10T03:59:50;-5.20;1.00
18717;DHT22;9487;50.892;6.906;2024-01-10T04:02:17;-5.30;1.00
18717;DHT22;9487;50.892;6.906;2024-01-10T04:04:44;-5.50;38.40
18717;DHT22;9487;50.892;6.906;2024-01-10T04:07:10;-5.40;99.90
18717;DHT22;9487;50.892;6.906;2024-01-10T04:09:39;-5.20;99.90
18717;DHT22;9487;50.892;6.906;2024-01-10T04:12:06;-5.30;1.00
18717;DHT22;9487;50.892;6.906;2024-01-10T04:14:32;-5.40;42.00
18717;DHT22;9487;50.892;6.906;2024-01-10T04:16:59;-5.40;99.90
18717;DHT22;9487;50.892;6.906;2024-01-10T04:19:26;-5.40;99.90
18717;DHT22;9487;50.892;6.906;2024-01-10T04:21:54;-5.60;1.00
18717;DHT22;9487;50.892;6.906;2024-01-10T04:24:21;-5.70;99.80
18717;DHT22;9487;50.892;6.906;2024-01-10T04:26:50;-5.60;99.90
18717;DHT22;9487;50.892;6.906;2024-01-10T04:29:18;-5.50;99.90
18717;DHT22;9487;50.892;6.906;2024-01-10T04:31:44;-5.20;99.90
18717;DHT22;9487;50.892;6.906;2024-01-10T04:34:11;-5.00;1.00
18717;DHT22;9487;50.892;6.906;2024-01-10T04:36:38;-5.10;35.90
18717;DHT22;9487;50.892;6.906;2024-01-10T04:39:06;-5.10;99.90
18717;DHT22;9487;50.892;6.906;2024-01-10T04:41:33;-5.00;99.90
18717;DHT22;9487;50.892;6.906;2024-01-10T04:44:01;-4.80;99.90
18717;DHT22;9487;50.892;6.906;2024-01-10T04:46:28;-4.70;1.00
18717;DHT22;9487;50.892;6.906;2024-01-10T04:48:55;-4.70;1.00
18717;DHT22;9487;50.892;6.906;2024-01-10T04:51:22;-4.60;1.00
18717;DHT22;9487;50.892;6.906;2024-01-10T04:53:49;-4.60;1.00
18717;DHT22;9487;50.892;6.906;2024-01-10T04:56:17;-4.60;1.00
18717;DHT22;9487;50.892;6.906;2024-01-10T04:58:48;-4.60;1.00
18717;DHT22;9487;50.892;6.906;2024-01-10T05:01:16;-4.60;1.00
18717;DHT22;9487;50.892;6.906;2024-01-10T05:03:44;-4.70;1.00
18717;DHT22;9487;50.892;6.906;2024-01-10T05:06:11;-4.70;1.00
18717;DHT22;9487;50.892;6.906;2024-01-10T05:08:38;-4.90;1.00
18717;DHT22;9487;50.892;6.906;2024-01-10T05:11:05;-5.00;1.00
18717;DHT22;9487;50.892;6.906;2024-01-10T05:13:32;-4.90;1.00
18717;DHT22;9487;50.892;6.906;2024-01-10T05:15:59;-5.00;1.00
18717;DHT22;9487;50.892;6.906;2024-01-10T05:18:27;-5.00;99.90
18717;DHT22;9487;50.892;6.906;2024-01-10T05:20:55;-4.90;99.90
18717;DHT22;9487;50.892;6.906;2024-01-10T05:23:23;-4.80;99.90
18717;DHT22;9487;50.892;6.906;2024-01-10T05:25:50;-4.80;99.90
18717;DHT22;9487;50.892;6.906;2024-01-10T05:28:18;-4.60;92.80
18717;DHT22;9487;50.892;6.906;2024-01-10T05:30:45;-4.50;1.00
18717;DHT22;9487;50.892;6.906;2024-01-10T05:33:12;-4.40;1.00
18717;DHT22;9487;50.892;6.906;2024-01-10T05:35:42;-4.40;1.00
18717;DHT22;9487;50.892;6.906;2024-01-10T05:38:09;-4.50;1.00
18717;DHT22;9487;50.892;6.906;2024-01-10T05:40:36;-4.60;1.00
18717;DHT22;9487;50.892;6.906;2024-01-10T05:43:04;-4.80;1.00
18717;DHT22;9487;50.892;6.906;2024-01-10T05:45:30;-4.80;1.00
18717;DHT22;9487;50.892;6.906;2024-01-10T05:47:58;-4.90;49.00
18717;DHT22;9487;50.892;6.906;2024-01-10T05:50:25;-4.80;99.90
18717;DHT22;9487;50.892;6.906;2024-01-10T05:52:56;-4.70;99.90
18717;DHT22;9487;50.892;6.906;2024-01-10T05:55:24;-4.60;99.90
18717;DHT22;9487;50.892;6.906;2024-01-10T05:57:51;-4.70;42.80
18717;DHT22;9487;50.892;6.906;2024-01-10T06:00:18;-4.60;99.90
18717;DHT22;9487;50.892;6.906;2024-01-10T06:02:47;-4.60;99.90
18717;DHT22;9487;50.892;6.906;2024-01-10T06:05:13;-4.50;99.90
18717;DHT22;9487;50.892;6.906;2024-01-10T06:07:41;-4.60;20.20
18717;DHT22;9487;50.892;6.906;2024-01-10T06:10:09;-4.50;99.90
18717;DHT22;9487;50.892;6.906;2024-01-10T06:12:36;-4.40;56.40
18717;DHT22;9487;50.892;6.906;2024-01-10T06:15:05;-4.50;1.00
18717;DHT22;9487;50.892;6.906;2024-01-10T06:17:33;-4.70;99.90
18717;DHT22;9487;50.892;6.906;2024-01-10T06:20:00;-4.60;99.90
18717;DHT22;9487;50.892;6.906;2024-01-10T06:22:28;-4.60;99.90
18717;DHT22;9487;50.892;6.906;2024-01-10T06:24:55;-4.90;1.00
18717;DHT22;9487;50.892;6.906;2024-01-10T06:27:24;-5.00;99.90
18717;DHT22;9487;50.892;6.906;2024-01-10T06:29:50;-4.80;1.00
18717;DHT22;9487;50.892;6.906;2024-01-10T06:32:17;-4.90;1.00
18717;DHT22;9487;50.892;6.906;2024-01-10T06:34:44;-5.10;1.00
18717;DHT22;9487;50.892;6.906;2024-01-10T06:37:11;-5.10;1.00
18717;DHT22;9487;50.892;6.906;2024-01-10T06:39:38;-5.20;1.00
18717;DHT22;9487;50.892;6.906;2024-01-10T06:42:05;-5.10;1.00
18717;DHT22;9487;50.892;6.906;2024-01-10T06:44:35;-5.10;1.00
18717;DHT22;9487;50.892;6.906;2024-01-10T06:47:04;-5.20;99.90
18717;DHT22;9487;50.892;6.906;2024-01-10T06:49:31;-5.20;1.00
18717;DHT22;9487;50.892;6.906;2024-01-10T06:51:57;-4.90;99.90
18717;DHT22;9487;50.892;6.906;2024-01-10T06:54:26;-4.70;1.00
18717;DHT22;9487;50.892;6.906;2024-01-10T06:56:52;-4.60;1.00
18717;DHT22;9487;50.892;6.906;2024-01-10T06:59:19;-4.50;1.00
18717;DHT22;9487;50.892;6.906;2024-01-10T07:01:52;-4.60;51.00
18717;DHT22;9487;50.892;6.906;2024-01-10T07:04:21;-4.90;1.00
18717;DHT22;9487;50.892;6.906;2024-01-10T07:06:49;-4.80;99.90
18717;DHT22;9487;50.892;6.906;2024-01-10T07:09:16;-4.70;36.10
18717;DHT22;9487;50.892;6.906;2024-01-10T07:11:45;-4.70;1.00
18717;DHT22;9487;50.892;6.906;2024-01-10T07:14:13;-4.80;1.00
18717;DHT22;9487;50.892;6.906;2024-01-10T07:16:40;-4.90;1.00
18717;DHT22;9487;50.892;6.906;2024-01-10T07:19:09;-5.00;1.00
18717;DHT22;9487;50.892;6.906;2024-01-10T07:21:39;-5.00;99.90
18717;DHT22;9487;50.892;6.906;2024-01-10T07:24:11;-4.80;1.00
18717;DHT22;9487;50.892;6.906;2024-01-10T07:26:38;-4.80;99.90
18717;DHT22;9487;50.892;6.906;2024-01-10T07:29:05;-4.80;1.00
18717;DHT22;9487;50.892;6.906;2024-01-10T07:31:33;-3.30;99.90
18717;DHT22;9487;50.892;6.906;2024-01-10T07:34:00;-1.70;99.90
18717;DHT22;9487;50.892;6.906;2024-01-10T07:36:31;-1.80;99.90
18717;DHT22;9487;50.892;6.906;2024-01-10T07:38:59;-2.20;99.90
18717;DHT22;9487;50.892;6.906;2024-01-10T07:41:27;-2.70;1.00
18717;DHT22;9487;50.892;6.906;2024-01-10T07:44:00;-3.10;99.90
18717;DHT22;9487;50.892;6.906;2024-01-10T07:46:28;-3.40;1.00
18717;DHT22;9487;50.892;6.906;2024-01-10T07:48:57;-3.60;1.00
18717;DHT22;9487;50.892;6.906;2024-01-10T07:51:26;-3.80;14.30
18717;DHT22;9487;50.892;6.906;2024-01-10T07:53:57;-4.00;1.00
18717;DHT22;9487;50.892;6.906;2024-01-10T07:56:24;-4.10;1.00
18717;DHT22;9487;50.892;6.906;2024-01-10T07:58:52;-4.30;99.90
18717;DHT22;9487;50.892;6.906;2024-01-10T08:01:19;-4.20;1.00
18717;DHT22;9487;50.892;6.906;2024-01-10T08:03:47;-2.80;99.90
18717;DHT22;9487;50.892;6.906;2024-01-10T08:06:14;-1.10;99.90
18717;DHT22;9487;50.892;6.906;2024-01-10T08:08:41;-0.20;99.90
18717;DHT22;9487;50.892;6.906;2024-01-10T08:11:10;-0.20;99.90
18717;DHT22;9487;50.892;6.906;2024-01-10T08:13:38;-0.90;1.00
18717;DHT22;9487;50.892;6.906;2024-01-10T08:16:06;-1.50;1.00
18717;DHT22;9487;50.892;6.906;2024-01-10T08:18:34;-2.00;7.20
18717;DHT22;9487;50.892;6.906;2024-01-10T08:21:01;-2.30;21.90
18717;DHT22;9487;50.892;6.906;2024-01-10T08:23:29;-2.50;1.00
18717;DHT22;9487;50.892;6.906;2024-01-10T08:25:56;-2.70;1.00
18717;DHT22;9487;50.892;6.906;2024-01-10T08:28:25;-2.90;1.00
18717;DHT22;9487;50.892;6.906;2024-01-10T08:30:52;-3.20;1.00
18717;DHT22;9487;50.892;6.906;2024-01-10T08:33:19;-3.40;1.00
18717;DHT22;9487;50.892;6.906;2024-01-10T08:35:46;-3.40;48.40
18717;DHT22;9487;50.892;6.906;2024-01-10T08:38:13;-3.40;99.90
18717;DHT22;9487;50.892;6.906;2024-01-10T08:40:40;-3.50;97.70
18717;DHT22;9487;50.892;6.906;2024-01-10T08:43:07;-3.60;7.60
18717;DHT22;9487;50.892;6.906;2024-01-10T08:45:35;-4.00;99.90
18717;DHT22;9487;50.892;6.906;2024-01-10T08:48:03;-4.20;1.00
18717;DHT22;9487;50.892;6.906;2024-01-10T08:50:32;-4.30;1.00
18717;DHT22;9487;50.892;6.906;2024-01-10T08:53:00;-4.40;1.00
18717;DHT22;9487;50.892;6.906;2024-01-10T08:55:29;-4.20;66.80
18717;DHT22;9487;50.892;6.906;2024-01-10T08:57:56;-4.10;1.00
18717;DHT22;9487;50.892;6.906;2024-01-10T09:00:23;-4.00;1.00
18717;DHT22;9487;50.892;6.906;2024-01-10T09:02:53;-3.90;1.00
18717;DHT22;9487;50.892;6.906;2024-01-10T09:05:20;-4.00;1.00
18717;DHT22;9487;50.892;6.906;2024-01-10T09:07:47;-4.00;1.00
18717;DHT22;9487;50.892;6.906;2024-01-10T09:10:14;-4.00;1.00
18717;DHT22;9487;50.892;6.906;2024-01-10T09:12:41;-3.80;1.00
18717;DHT22;9487;50.892;6.906;2024-01-10T09:15:11;-4.00;1.00
18717;DHT22;9487;50.892;6.906;2024-01-10T09:17:40;-4.00;1.00
18717;DHT22;9487;50.892;6.906;2024-01-10T09:20:09;-3.90;1.00
18717;DHT22;9487;50.892;6.906;2024-01-10T09:22:36;-3.60;1.00
18717;DHT22;9487;50.892;6.906;2024-01-10T09:25:04;-3.50;1.00
18717;DHT22;9487;50.892;6.906;2024-01-10T09:27:31;-3.40;99.90
18717;DHT22;9487;50.892;6.906;2024-01-10T09:29:59;-3.40;99.90
18717;DHT22;9487;50.892;6.906;2024-01-10T09:32:28;-3.40;99.90
18717;DHT22;9487;50.892;6.906;2024-01-10T09:34:55;-3.40;99.90
18717;DHT22;9487;50.892;6.906;2024-01-10T09:37:24;-3.30;1.00
18717;DHT22;9487;50.892;6.906;2024-01-10T09:39:50;-3.30;1.00
18717;DHT22;9487;50.892;6.906;2024-01-10T09:42:18;-3.30;1.00
18717;DHT22;9487;50.892;6.906;2024-01-10T09:44:48;-3.20;1.00
18717;DHT22;9487;50.892;6.906;2024-01-10T09:47:15;-3.20;1.00
18717;DHT22;9487;50.892;6.906;2024-01-10T09:49:42;-3.00;1.00
18717;DHT22;9487;50.892;6.906;2024-01-10T09:52:16;-3.00;99.90
18717;DHT22;9487;50.892;6.906;2024-01-10T09:54:45;-3.00;99.90
18717;DHT22;9487;50.892;6.906;2024-01-10T09:57:13;-2.90;99.90
18717;DHT22;9487;50.892;6.906;2024-01-10T09:59:41;-2.70;1.00
18717;DHT22;9487;50.892;6.906;2024-01-10T10:02:13;-2.70;1.00
18717;DHT22;9487;50.892;6.906;2024-01-10T10:04:48;-2.70;1.00
18717;DHT22;9487;50.892;6.906;2024-01-10T10:07:19;-2.60;1.00
18717;DHT22;9487;50.892;6.906;2024-01-10T10:09:48;-2.70;1.00
18717;DHT22;9487;50.892;6.906;2024-01-10T10:12:16;-2.60;1.00
18717;DHT22;9487;50.892;6.906;2024-01-10T10:14:44;-2.50;1.00
18717;DHT22;9487;50.892;6.906;2024-01-10T10:17:14;-2.40;1.00
18717;DHT22;9487;50.892;6.906;2024-01-10T10:19:42;-2.20;1.00
18717;DHT22;9487;50.892;6.906;2024-01-10T10:22:10;-1.60;99.90
18717;DHT22;9487;50.892;6.906;2024-01-10T10:24:37;-1.80;1.00
18717;DHT22;9487;50.892;6.906;2024-01-10T10:27:10;-2.10;1.00
18717;DHT22;9487;50.892;6.906;2024-01-10T10:29:37;-2.00;1.00
18717;DHT22;9487;50.892;6.906;2024-01-10T10:32:05;-2.30;1.00
18717;DHT22;9487;50.892;6.906;2024-01-10T10:34:34;-2.40;1.00
18717;DHT22;9487;50.892;6.906;2024-01-10T10:37:01;-2.60;1.00
18717;DHT22;9487;50.892;6.906;2024-01-10T10:39:28;-2.70;1.00
18717;DHT22;9487;50.892;6.906;2024-01-10T10:41:55;-2.60;1.00
18717;DHT22;9487;50.892;6.906;2024-01-10T10:44:25;-2.30;1.00
18717;DHT22;9487;50.892;6.906;2024-01-10T10:46:53;-2.20;1.00
18717;DHT22;9487;50.892;6.906;2024-01-10T10:49:27;-2.00;1.00
18717;DHT22;9487;50.892;6.906;2024-01-10T10:51:58;-2.20;1.00
18717;DHT22;9487;50.892;6.906;2024-01-10T10:54:28;-2.10;1.00
18717;DHT22;9487;50.892;6.906;2024-01-10T10:56:57;-2.10;1.00
18717;DHT22;9487;50.892;6.906;2024-01-10T10:59:29;-2.10;1.00
18717;DHT22;9487;50.892;6.906;2024-01-10T11:01:58;-2.10;1.00
18717;DHT22;9487;50.892;6.906;2024-01-10T11:04:25;-2.10;1.00
18717;DHT22;9487;50.892;6.906;2024-01-10T11:06:52;-2.10;1.00
18717;DHT22;9487;50.892;6.906;2024-01-10T11:09:20;-2.00;1.00
18717;DHT22;9487;50.892;6.906;2024-01-10T11:12:10;-2.10;1.00
18717;DHT22;9487;50.892;6.906;2024-01-10T11:14:57;-2.30;1.00
18717;DHT22;9487;50.892;6.906;2024-01-10T11:17:50;-2.50;1.00
18717;DHT22;9487;50.892;6.906;2024-01-10T11:20:47;-2.50;1.00
18717;DHT22;9487;50.892;6.906;2024-01-10T11:23:41;-2.50;1.00
18717;DHT22;9487;50.892;6.906;2024-01-10T11:26:10;-2.20;1.00
18717;DHT22;9487;50.892;6.906;2024-01-10T11:28:39;-2.10;1.00
18717;DHT22;9487;50.892;6.906;2024-01-10T11:31:08;-1.90;1.00
18717;DHT22;9487;50.892;6.906;2024-01-10T11:33:36;-1.90;1.00
18717;DHT22;9487;50.892;6.906;2024-01-10T11:36:16;-1.80;1.00
18717;DHT22;9487;50.892;6.906;2024-01-10T11:38:48;-1.70;1.00
18717;DHT22;9487;50.892;6.906;2024-01-10T11:41:23;-1.50;1.00
18717;DHT22;9487;50.892;6.906;2024-01-10T11:46:58;-1.30;1.00
18717;DHT22;9487;50.892;6.906;2024-01-10T11:49:26;-1.20;1.00
18717;DHT22;9487;50.892;6.906;2024-01-10T11:51:55;-1.20;1.00
18717;DHT22;9487;50.892;6.906;2024-01-10T11:54:39;-1.30;1.00
18717;DHT22;9487;50.892;6.906;2024-01-10T11:57:18;-1.10;1.00
18717;DHT22;9487;50.892;6.906;2024-01-10T11:59:45;-1.00;1.00
18717;DHT22;9487;50.892;6.906;2024-01-10T12:02:13;-0.80;1.00
18717;DHT22;9487;50.892;6.906;2024-01-10T12:04:43;-0.70;1.00
18717;DHT22;9487;50.892;6.906;2024-01-10T12:07:11;-0.60;1.00
18717;DHT22;9487;50.892;6.906;2024-01-10T12:09:38;-0.60;1.00
18717;DHT22;9487;50.892;6.906;2024-01-10T12:12:06;-0.50;1.00
18717;DHT22;9487;50.892;6.906;2024-01-10T12:14:33;-0.30;1.00
18717;DHT22;9487;50.892;6.906;2024-01-10T12:17:01;-0.20;1.00
18717;DHT22;9487;50.892;6.906;2024-01-10T12:19:31;0.00;1.00
18717;DHT22;9487;50.892;6.906;2024-01-10T12:21:58;0.00;1.00
18717;DHT22;9487;50.892;6.906;2024-01-10T12:24:27;0.00;1.00
18717;DHT22;9487;50.892;6.906;2024-01-10T12:26:55;0.70;1.00
18717;DHT22;9487;50.892;6.906;2024-01-10T12:29:22;1.50;1.00
18717;DHT22;9487;50.892;6.906;2024-01-10T12:31:51;1.60;1.00
18717;DHT22;9487;50.892;6.906;2024-01-10T12:34:18;1.40;1.00
18717;DHT22;9487;50.892;6.906;2024-01-10T12:36:46;1.10;1.00
18717;DHT22;9487;50.892;6.906;2024-01-10T12:39:13;0.90;1.00
18717;DHT22;9487;50.892;6.906;2024-01-10T12:41:40;0.80;1.00
18717;DHT22;9487;50.892;6.906;2024-01-10T12:44:07;0.40;1.00
18717;DHT22;9487;50.892;6.906;2024-01-10T12:46:34;0.30;1.00
18717;DHT22;9487;50.892;6.906;2024-01-10T12:49:03;0.30;1.00
18717;DHT22;9487;50.892;6.906;2024-01-10T12:51:31;0.20;1.00
18717;DHT22;9487;50.892;6.906;2024-01-10T12:54:01;0.20;1.00
18717;DHT22;9487;50.892;6.906;2024-01-10T12:56:28;0.20;1.00
18717;DHT22;9487;50.892;6.906;2024-01-10T12:58:55;0.10;1.00
18717;DHT22;9487;50.892;6.906;2024-01-10T13:01:23;0.20;1.00
18717;DHT22;9487;50.892;6.906;2024-01-10T13:03:50;0.20;1.00
18717;DHT22;9487;50.892;6.906;2024-01-10T13:06:18;0.10;1.00
18717;DHT22;9487;50.892;6.906;2024-01-10T13:08:48;0.10;1.00
18717;DHT22;9487;50.892;6.906;2024-01-10T13:11:16;0.10;1.00
18717;DHT22;9487;50.892;6.906;2024-01-10T13:13:43;0.00;1.00
18717;DHT22;9487;50.892;6.906;2024-01-10T13:16:10;0.10;1.00
18717;DHT22;9487;50.892;6.906;2024-01-10T13:18:38;0.10;1.00
18717;DHT22;9487;50.892;6.906;2024-01-10T13:21:05;0.10;1.00
18717;DHT22;9487;50.892;6.906;2024-01-10T13:23:33;0.20;1.00
18717;DHT22;9487;50.892;6.906;2024-01-10T13:26:00;0.20;1.00
18717;DHT22;9487;50.892;6.906;2024-01-10T13:28:28;0.30;1.00
18717;DHT22;9487;50.892;6.906;2024-01-10T13:30:55;0.40;1.00
18717;DHT22;9487;50.892;6.906;2024-01-10T13:33:22;0.40;1.00
18717;DHT22;9487;50.892;6.906;2024-01-10T13:35:51;0.00;1.00
18717;DHT22;9487;50.892;6.906;2024-01-10T13:38:17;0.10;1.00
18717;DHT22;9487;50.892;6.906;2024-01-10T13:40:44;0.10;1.00
18717;DHT22;9487;50.892;6.906;2024-01-10T13:43:11;0.20;1.00
18717;DHT22;9487;50.892;6.906;2024-01-10T13:45:40;0.20;1.00
18717;DHT22;9487;50.892;6.906;2024-01-10T13:48:07;0.30;1.00
18717;DHT22;9487;50.892;6.906;2024-01-10T13:50:35;0.20;1.00
18717;DHT22;9487;50.892;6.906;2024-01-10T13:53:02;0.30;1.00
18717;DHT22;9487;50.892;6.906;2024-01-10T13:55:31;0.30;1.00
18717;DHT22;9487;50.892;6.906;2024-01-10T13:57:58;0.30;1.00
18717;DHT22;9487;50.892;6.906;2024-01-10T14:00:25;0.30;1.00
18717;DHT22;9487;50.892;6.906;2024-01-10T14:02:54;0.40;1.00
18717;DHT22;9487;50.892;6.906;2024-01-10T14:05:25;0.40;1.00
18717;DHT22;9487;50.892;6.906;2024-01-10T14:07:52;0.40;1.00
18717;DHT22;9487;50.892;6.906;2024-01-10T14:10:19;0.40;1.00
18717;DHT22;9487;50.892;6.906;2024-01-10T14:12:46;0.50;1.00
18717;DHT22;9487;50.892;6.906;2024-01-10T14:15:13;0.40;1.00
18717;DHT22;9487;50.892;6.906;2024-01-10T14:17:40;0.40;1.00
18717;DHT22;9487;50.892;6.906;2024-01-10T14:20:10;0.40;1.00
18717;DHT22;9487;50.892;6.906;2024-01-10T14:22:39;0.40;1.00
18717;DHT22;9487;50.892;6.906;2024-01-10T14:25:07;0.40;1.00
18717;DHT22;9487;50.892;6.906;2024-01-10T14:27:35;0.20;1.00
18717;DHT22;9487;50.892;6.906;2024-01-10T14:30:05;0.10;1.00
18717;DHT22;9487;50.892;6.906;2024-01-10T14:32:34;0.20;1.00
18717;DHT22;9487;50.892;6.906;2024-01-10T14:35:01;0.40;1.00
18717;DHT22;9487;50.892;6.906;2024-01-10T14:37:29;0.50;1.00
18717;DHT22;9487;50.892;6.906;2024-01-10T14:39:56;0.60;1.00
18717;DHT22;9487;50.892;6.906;2024-01-10T14:42:23;0.70;1.00
18717;DHT22;9487;50.892;6.906;2024-01-10T14:44:50;0.80;1.00
18717;DHT22;9487;50.892;6.906;2024-01-10T14:47:17;0.80;1.00
18717;DHT22;9487;50.892;6.906;2024-01-10T14:49:44;0.90;1.00
18717;DHT22;9487;50.892;6.906;2024-01-10T14:52:11;0.90;1.00
18717;DHT22;9487;50.892;6.906;2024-01-10T14:54:39;0.90;1.00
18717;DHT22;9487;50.892;6.906;2024-01-10T14:57:06;1.00;1.00
18717;DHT22;9487;50.892;6.906;2024-01-10T14:59:34;1.10;1.00
18717;DHT22;9487;50.892;6.906;2024-01-10T15:02:03;1.10;1.00
18717;DHT22;9487;50.892;6.906;2024-01-10T15:04:32;1.10;1.00
18717;DHT22;9487;50.892;6.906;2024-01-10T15:07:03;1.10;1.00
18717;DHT22;9487;50.892;6.906;2024-01-10T15:09:29;1.20;1.00
18717;DHT22;9487;50.892;6.906;2024-01-10T15:11:58;1.20;1.00
18717;DHT22;9487;50.892;6.906;2024-01-10T15:14:24;1.30;1.00
18717;DHT22;9487;50.892;6.906;2024-01-10T15:16:51;1.30;1.00
18717;DHT22;9487;50.892;6.906;2024-01-10T15:19:18;1.40;1.00
18717;DHT22;9487;50.892;6.906;2024-01-10T15:21:45;1.40;1.00
18717;DHT22;9487;50.892;6.906;2024-01-10T15:24:13;1.50;1.00
18717;DHT22;9487;50.892;6.906;2024-01-10T15:26:39;1.40;1.00
18717;DHT22;9487;50.892;6.906;2024-01-10T15:29:08;1.40;1.00
18717;DHT22;9487;50.892;6.906;2024-01-10T15:31:35;1.40;1.00
18717;DHT22;9487;50.892;6.906;2024-01-10T15:34:03;1.20;1.00
18717;DHT22;9487;50.892;6.906;2024-01-10T15:36:29;1.10;1.00
18717;DHT22;9487;50.892;6.906;2024-01-10T15:38:56;0.90;1.00
18717;DHT22;9487;50.892;6.906;2024-01-10T15:41:23;0.80;1.00
18717;DHT22;9487;50.892;6.906;2024-01-10T15:43:50;0.80;1.00
18717;DHT22;9487;50.892;6.906;2024-01-10T15:46:21;0.70;1.00
18717;DHT22;9487;50.892;6.906;2024-01-10T15:48:48;0.60;1.00
18717;DHT22;9487;50.892;6.906;2024-01-10T15:51:14;0.50;1.00
18717;DHT22;9487;50.892;6.906;2024-01-10T15:53:41;0.50;1.00
18717;DHT22;9487;50.892;6.906;2024-01-10T15:56:10;0.40;1.00
18717;DHT22;9487;50.892;6.906;2024-01-10T15:58:38;0.40;1.00
18717;DHT22;9487;50.892;6.906;2024-01-10T16:01:05;0.40;1.00
18717;DHT22;9487;50.892;6.906;2024-01-10T16:03:33;0.50;1.00
18717;DHT22;9487;50.892;6.906;2024-01-10T16:06:01;0.50;1.00
18717;DHT22;9487;50.892;6.906;2024-01-10T16:08:28;0.40;1.00